Time;durP1;ratioP1;P1;durP2;ratioP2;P2;SDS_P1;SDS_P2;PMS_P1;PMS_P2;Temp;Humidity;BMP_temperature;BMP_pressure;BME280_temperature;BME280_humidity;BME280_pressure;Samples;Min_cycle;Max_cycle;Signal;HPM_P1;HPM_P2
2023/04/20 00:01:20;;;;;;;6.03;3.10;;;;;;;;;;5052165;28;20090;-78
2023/04/20 00:03:47;;;;;;;8.68;2.88;;;;;;;;;;5054775;28;20051;-78
2023/04/20 00:06:14;;;;;;;6.10;2.70;;;;;;;;;;5053651;28;20049;-78
2023/04/20 00:08:40;;;;;;;7.47;2.78;;;;;;;;;;5029613;28;20048;-78
2023/04/20 00:11:06;;;;;;;7.75;2.78;;;;;;;;;;5054536;28;20078;-78
2023/04/20 00:13:32;;;;;;;5.60;2.58;;;;;;;;;;5028487;28;20041;-78
2023/04/20 00:15:58;;;;;;;6.47;2.50;;;;;;;;;;5034870;28;20106;-79
2023/04/20 00:18:24;;;;;;;4.88;2.63;;;;;;;;;;5053157;28;20049;-79
2023/04/20 00:20:50;;;;;;;6.90;2.60;;;;;;;;;;5047130;28;20052;-78
2023/04/20 00:23:16;;;;;;;4.78;2.75;;;;;;;;;;5053815;28;20430;-78
2023/04/20 00:25:42;;;;;;;4.43;2.50;;;;;;;;;;5045934;28;20051;-78
2023/04/20 00:28:08;;;;;;;8.90;2.47;;;;;;;;;;5054082;28;20120;-78
2023/04/20 00:30:34;;;;;;;6.03;2.42;;;;;;;;;;5053456;28;20531;-79
2023/04/20 00:33:02;;;;;;;5.40;2.60;;;;;;;;;;5049018;28;20080;-78
2023/04/20 00:35:28;;;;;;;5.60;2.45;;;;;;;;;;5033485;28;20056;-78
2023/04/20 00:37:54;;;;;;;6.45;2.50;;;;;;;;;;5052106;28;20052;-78
2023/04/20 00:40:20;;;;;;;7.95;2.55;;;;;;;;;;5023340;28;20486;-78
2023/04/20 00:42:46;;;;;;;6.03;2.50;;;;;;;;;;5026305;28;20055;-78
2023/04/20 00:45:12;;;;;;;6.90;3.10;;;;;;;;;;5034002;28;20135;-78
2023/04/20 00:47:38;;;;;;;5.75;2.50;;;;;;;;;;5039398;28;20492;-78
2023/04/20 00:50:04;;;;;;;6.53;2.40;;;;;;;;;;5050037;28;20076;-78
2023/04/20 00:52:31;;;;;;;6.88;2.60;;;;;;;;;;5045275;28;20049;-78
2023/04/20 00:54:57;;;;;;;7.15;2.50;;;;;;;;;;4998443;28;20042;-79
2023/04/20 00:57:26;;;;;;;8.02;2.65;;;;;;;;;;5014107;28;20112;-79
2023/04/20 00:59:52;;;;;;;6.18;2.42;;;;;;;;;;4996083;28;20050;-78
2023/04/20 01:02:18;;;;;;;7.03;2.70;;;;;;;;;;5013769;28;20049;-79
2023/04/20 01:04:45;;;;;;;8.98;2.70;;;;;;;;;;5026884;28;20041;-78
2023/04/20 01:07:11;;;;;;;4.43;2.42;;;;;;;;;;5053025;28;20409;-78
2023/04/20 01:09:41;;;;;;;7.22;2.58;;;;;;;;;;5052979;28;20422;-78
2023/04/20 01:12:09;;;;;;;5.28;2.40;;;;;;;;;;5035490;28;20444;-79
2023/04/20 01:14:35;;;;;;;6.75;2.70;;;;;;;;;;5034831;28;20036;-79
2023/04/20 01:17:04;;;;;;;7.25;2.47;;;;;;;;;;5035776;28;20099;-78
2023/04/20 01:19:30;;;;;;;5.30;2.47;;;;;;;;;;5052905;28;20563;-78
2023/04/20 01:21:56;;;;;;;7.10;2.40;;;;;;;;;;5036163;28;20341;-77
2023/04/20 01:24:22;;;;;;;6.18;2.63;;;;;;;;;;5034834;28;20132;-78
2023/04/20 01:26:48;;;;;;;6.78;2.60;;;;;;;;;;5034686;28;20128;-78
2023/04/20 01:29:14;;;;;;;6.55;2.80;;;;;;;;;;5050912;28;20040;-78
2023/04/20 01:31:40;;;;;;;6.28;2.58;;;;;;;;;;5052986;28;20061;-78
2023/04/20 01:34:06;;;;;;;4.20;2.25;;;;;;;;;;5047497;28;20084;-77
2023/04/20 01:36:32;;;;;;;6.07;2.40;;;;;;;;;;5036387;28;20056;-78
2023/04/20 01:38:59;;;;;;;6.30;2.70;;;;;;;;;;5012928;28;20037;-78
2023/04/20 01:41:25;;;;;;;8.57;2.60;;;;;;;;;;5020875;28;20056;-78
2023/04/20 01:43:52;;;;;;;5.80;2.53;;;;;;;;;;5032169;28;20403;-78
2023/04/20 01:46:18;;;;;;;7.55;2.40;;;;;;;;;;5027386;28;20048;-78
2023/04/20 01:48:44;;;;;;;4.95;2.50;;;;;;;;;;5000203;28;20038;-78
2023/04/20 01:51:10;;;;;;;8.23;2.55;;;;;;;;;;5015465;28;20117;-78
2023/04/20 01:53:36;;;;;;;4.45;2.47;;;;;;;;;;5021686;28;20041;-78
2023/04/20 01:56:02;;;;;;;7.55;2.58;;;;;;;;;;5049283;28;20063;-78
2023/04/20 01:58:28;;;;;;;13.65;2.88;;;;;;;;;;5046222;28;20042;-79
2023/04/20 02:00:54;;;;;;;7.93;2.72;;;;;;;;;;5032927;28;20045;-78
2023/04/20 02:03:20;;;;;;;6.60;2.65;;;;;;;;;;5032678;28;20513;-77
2023/04/20 02:05:46;;;;;;;5.38;2.20;;;;;;;;;;5032926;28;20045;-78
2023/04/20 02:08:12;;;;;;;8.05;2.60;;;;;;;;;;5015108;28;20060;-78
2023/04/20 02:10:38;;;;;;;8.57;2.83;;;;;;;;;;5037166;28;20060;-78
2023/04/20 02:13:04;;;;;;;5.00;2.63;;;;;;;;;;5052915;28;20045;-78
2023/04/20 02:15:30;;;;;;;8.30;2.70;;;;;;;;;;5052838;28;20037;-79
2023/04/20 02:17:56;;;;;;;8.88;2.60;;;;;;;;;;5056394;28;20178;-78
2023/04/20 02:20:23;;;;;;;7.63;2.78;;;;;;;;;;5056753;28;20052;-78
2023/04/20 02:22:49;;;;;;;7.32;2.85;;;;;;;;;;5039010;28;20059;-78
2023/04/20 02:25:15;;;;;;;8.23;2.80;;;;;;;;;;5026831;28;20048;-78
2023/04/20 02:27:42;;;;;;;9.43;2.97;;;;;;;;;;5038356;28;20049;-78
2023/04/20 02:30:09;;;;;;;8.30;2.65;;;;;;;;;;5033380;28;20116;-78
2023/04/20 02:32:35;;;;;;;7.50;2.80;;;;;;;;;;5045568;28;20140;-78
2023/04/20 02:35:02;;;;;;;7.10;2.50;;;;;;;;;;5055972;28;20080;-78
2023/04/20 02:37:29;;;;;;;9.93;2.92;;;;;;;;;;5055826;28;20068;-78
2023/04/20 02:39:55;;;;;;;6.70;2.78;;;;;;;;;;5056068;28;20076;-78
2023/04/20 02:42:24;;;;;;;6.22;2.75;;;;;;;;;;5056543;28;20056;-78
2023/04/20 02:44:51;;;;;;;9.80;2.80;;;;;;;;;;5055997;28;20037;-78
2023/04/20 02:47:17;;;;;;;9.60;2.50;;;;;;;;;;5054958;28;20057;-78
2023/04/20 02:49:43;;;;;;;6.18;2.60;;;;;;;;;;5054578;28;20106;-78
2023/04/20 02:52:10;;;;;;;7.55;2.83;;;;;;;;;;5036719;28;20504;-78
2023/04/20 02:54:36;;;;;;;7.28;2.75;;;;;;;;;;5040441;28;20508;-78
2023/04/20 02:57:02;;;;;;;4.80;2.58;;;;;;;;;;5054930;28;20045;-78
2023/04/20 02:59:28;;;;;;;9.90;2.50;;;;;;;;;;5052840;28;20044;-79
2023/04/20 03:01:54;;;;;;;6.28;2.70;;;;;;;;;;5052201;28;20087;-78
2023/04/20 03:04:20;;;;;;;10.07;2.72;;;;;;;;;;5054917;28;20119;-78
2023/04/20 03:06:47;;;;;;;9.07;2.80;;;;;;;;;;5053216;28;20183;-78
2023/04/20 03:09:13;;;;;;;8.27;2.67;;;;;;;;;;5054112;28;20049;-78
2023/04/20 03:11:39;;;;;;;5.78;2.70;;;;;;;;;;5055528;28;20121;-78
2023/04/20 03:14:05;;;;;;;9.55;2.83;;;;;;;;;;5055742;28;20048;-79
2023/04/20 03:16:31;;;;;;;9.63;2.50;;;;;;;;;;5054367;28;20063;-78
2023/04/20 03:18:58;;;;;;;7.38;2.90;;;;;;;;;;5053782;28;20048;-78
2023/04/20 03:21:24;;;;;;;6.00;2.80;;;;;;;;;;5055477;28;20110;-78
2023/04/20 03:23:50;;;;;;;7.47;2.83;;;;;;;;;;5053287;28;20401;-79
2023/04/20 03:26:16;;;;;;;7.50;2.95;;;;;;;;;;5054736;28;20486;-78
2023/04/20 03:28:42;;;;;;;7.80;2.75;;;;;;;;;;5054412;28;20537;-78
2023/04/20 03:31:09;;;;;;;6.38;2.50;;;;;;;;;;5053359;28;20117;-78
2023/04/20 03:33:35;;;;;;;8.40;2.80;;;;;;;;;;5054933;28;20114;-78
2023/04/20 03:36:01;;;;;;;8.30;2.63;;;;;;;;;;5054241;28;20115;-78
2023/04/20 03:38:27;;;;;;;7.45;2.80;;;;;;;;;;5054027;28;20052;-78
2023/04/20 03:40:53;;;;;;;6.20;2.80;;;;;;;;;;5054336;28;20041;-78
2023/04/20 03:43:19;;;;;;;7.28;2.72;;;;;;;;;;5055138;28;20080;-78
2023/04/20 03:45:45;;;;;;;6.53;2.40;;;;;;;;;;5053446;28;20045;-79
2023/04/20 03:48:11;;;;;;;6.22;2.65;;;;;;;;;;5053361;28;20037;-78
2023/04/20 03:50:37;;;;;;;3.90;2.50;;;;;;;;;;5054544;28;20120;-78
2023/04/20 03:53:03;;;;;;;9.48;2.53;;;;;;;;;;5052709;28;20468;-78
2023/04/20 03:55:29;;;;;;;9.27;2.83;;;;;;;;;;5033576;28;20073;-78
2023/04/20 03:57:55;;;;;;;8.88;3.20;;;;;;;;;;5042611;28;20081;-78
2023/04/20 04:00:21;;;;;;;5.95;2.55;;;;;;;;;;5054242;28;20076;-78
2023/04/20 04:02:47;;;;;;;5.80;2.30;;;;;;;;;;5053401;28;20092;-78
2023/04/20 04:05:13;;;;;;;8.07;2.45;;;;;;;;;;5052668;28;20071;-78
2023/04/20 04:07:40;;;;;;;6.97;2.78;;;;;;;;;;5054341;28;20553;-79
2023/04/20 04:10:06;;;;;;;5.85;2.70;;;;;;;;;;5054006;28;20040;-79
2023/04/20 04:12:32;;;;;;;4.68;2.47;;;;;;;;;;5053131;28;20052;-79
2023/04/20 04:14:58;;;;;;;5.38;2.47;;;;;;;;;;5052840;28;20048;-79
2023/04/20 04:17:24;;;;;;;6.75;2.55;;;;;;;;;;5054389;28;20067;-78
2023/04/20 04:19:50;;;;;;;6.38;2.67;;;;;;;;;;5054142;28;20452;-78
2023/04/20 04:22:16;;;;;;;5.20;2.50;;;;;;;;;;5054106;28;20127;-78
2023/04/20 04:24:42;;;;;;;6.53;3.00;;;;;;;;;;5053023;28;20128;-78
2023/04/20 04:27:10;;;;;;;5.95;2.70;;;;;;;;;;5055101;28;20048;-77
2023/04/20 04:29:37;;;;;;;5.43;2.58;;;;;;;;;;5056591;28;20048;-77
2023/04/20 04:32:04;;;;;;;6.00;2.70;;;;;;;;;;5054120;28;20053;-78
2023/04/20 04:34:32;;;;;;;6.10;2.70;;;;;;;;;;5035508;28;20458;-78
2023/04/20 04:36:58;;;;;;;8.23;2.50;;;;;;;;;;5052166;28;20041;-78
2023/04/20 04:39:25;;;;;;;4.43;2.55;;;;;;;;;;5052183;28;20099;-78
2023/04/20 04:41:51;;;;;;;5.75;2.33;;;;;;;;;;5035545;28;20393;-78
2023/04/20 04:44:17;;;;;;;3.70;2.33;;;;;;;;;;5036298;28;20047;-78
2023/04/20 04:46:44;;;;;;;10.35;2.65;;;;;;;;;;5035037;28;20045;-78
2023/04/20 04:49:10;;;;;;;8.25;2.60;;;;;;;;;;5053505;28;20052;-78
2023/04/20 04:51:37;;;;;;;7.47;2.47;;;;;;;;;;5053489;28;20103;-78
2023/04/20 04:54:04;;;;;;;8.18;2.63;;;;;;;;;;5025773;28;20046;-78
2023/04/20 04:56:32;;;;;;;5.32;2.50;;;;;;;;;;5024472;28;20447;-78
2023/04/20 04:58:59;;;;;;;6.55;2.80;;;;;;;;;;5048934;28;20040;-78
2023/04/20 05:01:25;;;;;;;6.90;2.50;;;;;;;;;;5019004;28;20045;-79
2023/04/20 05:03:51;;;;;;;5.45;2.53;;;;;;;;;;5035665;28;20068;-78
2023/04/20 05:06:17;;;;;;;6.57;2.45;;;;;;;;;;5053504;28;20370;-78
2023/04/20 05:08:43;;;;;;;6.18;2.15;;;;;;;;;;5053013;28;20045;-78
2023/04/20 05:11:09;;;;;;;9.95;2.50;;;;;;;;;;5052681;28;20053;-78
2023/04/20 05:13:35;;;;;;;6.80;2.78;;;;;;;;;;5053622;28;20056;-79
2023/04/20 05:16:01;;;;;;;8.48;2.67;;;;;;;;;;5053055;28;20099;-78
2023/04/20 05:18:27;;;;;;;5.93;2.28;;;;;;;;;;5053326;28;20124;-78
2023/04/20 05:20:54;;;;;;;7.68;2.50;;;;;;;;;;5052879;28;20077;-78
2023/04/20 05:23:20;;;;;;;5.63;2.40;;;;;;;;;;5034354;28;20396;-78
2023/04/20 05:25:46;;;;;;;9.32;3.00;;;;;;;;;;5052153;28;20120;-78
2023/04/20 05:28:12;;;;;;;6.22;2.45;;;;;;;;;;5033605;28;20052;-78
2023/04/20 05:30:38;;;;;;;5.15;2.30;;;;;;;;;;5052204;28;20489;-78
2023/04/20 05:33:04;;;;;;;8.20;2.58;;;;;;;;;;5018233;28;20056;-78
2023/04/20 05:35:30;;;;;;;5.13;2.58;;;;;;;;;;5034764;28;20116;-78
2023/04/20 05:37:59;;;;;;;6.03;2.60;;;;;;;;;;5052413;28;20473;-78
2023/04/20 05:40:25;;;;;;;7.28;2.88;;;;;;;;;;5052449;28;20045;-78
2023/04/20 05:42:51;;;;;;;7.65;2.78;;;;;;;;;;5046967;28;20044;-78
2023/04/20 05:45:17;;;;;;;8.13;2.40;;;;;;;;;;5052426;28;20112;-77
2023/04/20 05:47:51;;;;;;;4.63;2.40;;;;;;;;;;5034536;28;20049;-78
2023/04/20 05:50:17;;;;;;;6.45;2.90;;;;;;;;;;5052389;28;20454;-77
2023/04/20 05:52:43;;;;;;;7.80;2.78;;;;;;;;;;5052234;28;20063;-79
2023/04/20 05:55:09;;;;;;;6.43;2.92;;;;;;;;;;5050459;28;20423;-79
2023/04/20 05:57:41;;;;;;;9.65;2.92;;;;;;;;;;5018655;28;20044;-79
2023/04/20 06:00:08;;;;;;;5.70;2.50;;;;;;;;;;5052458;28;20056;-79
2023/04/20 06:02:34;;;;;;;6.00;2.88;;;;;;;;;;5052241;28;20458;-79
2023/04/20 06:05:00;;;;;;;5.47;2.70;;;;;;;;;;5052271;28;20041;-79
2023/04/20 06:07:26;;;;;;;9.15;2.60;;;;;;;;;;5052450;28;20060;-79
2023/04/20 06:09:52;;;;;;;8.95;3.00;;;;;;;;;;5032104;28;20508;-79
2023/04/20 06:12:18;;;;;;;8.30;2.70;;;;;;;;;;5031064;28;20045;-79
2023/04/20 06:14:44;;;;;;;8.45;2.30;;;;;;;;;;5033986;28;20045;-78
2023/04/20 06:17:10;;;;;;;8.43;2.55;;;;;;;;;;5051894;28;20063;-78
2023/04/20 06:19:36;;;;;;;6.13;2.70;;;;;;;;;;5051778;28;20047;-78
2023/04/20 06:22:09;;;;;;;5.53;2.50;;;;;;;;;;5033696;28;20118;-78
2023/04/20 06:24:37;;;;;;;6.93;2.53;;;;;;;;;;5033833;28;20189;-78
2023/04/20 06:27:03;;;;;;;5.88;2.50;;;;;;;;;;5034018;28;20041;-78
2023/04/20 06:29:29;;;;;;;6.25;2.65;;;;;;;;;;5033924;28;20076;-78
2023/04/20 06:31:55;;;;;;;5.88;2.80;;;;;;;;;;5043056;28;20429;-79
2023/04/20 06:34:21;;;;;;;7.18;2.72;;;;;;;;;;5050460;28;20287;-78
2023/04/20 06:36:47;;;;;;;6.53;2.90;;;;;;;;;;5044891;28;20088;-77
2023/04/20 06:39:16;;;;;;;8.18;2.95;;;;;;;;;;5049988;28;20148;-78
2023/04/20 06:41:42;;;;;;;7.85;2.70;;;;;;;;;;5026513;28;20397;-78
2023/04/20 06:44:08;;;;;;;5.32;2.75;;;;;;;;;;5051912;28;20049;-78
2023/04/20 06:46:36;;;;;;;10.10;3.40;;;;;;;;;;5051604;28;20124;-77
2023/04/20 06:49:02;;;;;;;8.73;3.20;;;;;;;;;;5046690;28;20575;-76
2023/04/20 06:51:29;;;;;;;6.38;2.97;;;;;;;;;;5052034;28;20055;-78
2023/04/20 06:53:55;;;;;;;9.45;3.08;;;;;;;;;;5045108;28;20056;-77
2023/04/20 06:56:21;;;;;;;6.00;2.83;;;;;;;;;;5032783;28;20037;-77
2023/04/20 06:58:48;;;;;;;8.63;3.05;;;;;;;;;;5044283;28;20041;-78
2023/04/20 07:01:14;;;;;;;5.90;3.00;;;;;;;;;;5049944;28;20047;-78
2023/04/20 07:03:40;;;;;;;7.63;3.20;;;;;;;;;;5052570;28;20396;-78
2023/04/20 07:06:06;;;;;;;6.05;3.00;;;;;;;;;;5055090;28;20398;-78
2023/04/20 07:08:35;;;;;;;7.32;3.10;;;;;;;;;;5055666;28;20109;-78
2023/04/20 07:11:01;;;;;;;7.13;3.38;;;;;;;;;;5031201;28;20048;-78
2023/04/20 07:13:29;;;;;;;7.38;3.30;;;;;;;;;;5053891;28;20047;-79
2023/04/20 07:15:55;;;;;;;11.07;3.17;;;;;;;;;;5055264;28;20045;-79
2023/04/20 07:18:21;;;;;;;7.47;3.10;;;;;;;;;;5057875;28;20088;-76
2023/04/20 07:20:49;;;;;;;7.88;3.17;;;;;;;;;;5038939;28;20044;-79
2023/04/20 07:23:15;;;;;;;8.50;3.28;;;;;;;;;;5037623;28;20053;-78
2023/04/20 07:25:41;;;;;;;6.38;3.58;;;;;;;;;;5047072;28;20041;-77
2023/04/20 07:28:07;;;;;;;6.40;3.10;;;;;;;;;;5055496;28;20127;-78
2023/04/20 07:30:33;;;;;;;4.22;2.90;;;;;;;;;;5045235;28;20571;-77
2023/04/20 07:32:59;;;;;;;5.70;2.95;;;;;;;;;;5053724;28;20122;-78
2023/04/20 07:35:25;;;;;;;6.90;3.30;;;;;;;;;;5054043;28;20071;-78
2023/04/20 07:37:51;;;;;;;6.35;3.10;;;;;;;;;;5048239;28;20122;-78
2023/04/20 07:40:18;;;;;;;7.53;3.38;;;;;;;;;;5052587;28;20079;-77
2023/04/20 07:42:44;;;;;;;6.97;3.40;;;;;;;;;;5036695;28;20094;-77
2023/04/20 07:45:12;;;;;;;6.38;3.50;;;;;;;;;;5054670;28;20037;-79
2023/04/20 07:47:38;;;;;;;5.70;3.40;;;;;;;;;;5046460;28;20094;-79
2023/04/20 07:50:05;;;;;;;5.82;3.30;;;;;;;;;;5053470;28;20033;-79
2023/04/20 07:52:31;;;;;;;6.95;3.47;;;;;;;;;;5029279;28;20402;-79
2023/04/20 07:54:58;;;;;;;6.75;3.60;;;;;;;;;;5036112;28;20378;-78
2023/04/20 07:57:24;;;;;;;7.80;3.45;;;;;;;;;;5053440;28;20044;-79
2023/04/20 07:59:50;;;;;;;7.07;3.25;;;;;;;;;;5054367;28;20045;-77
2023/04/20 08:02:16;;;;;;;6.25;3.45;;;;;;;;;;5054075;28;20044;-77
2023/04/20 08:04:47;;;;;;;6.65;3.30;;;;;;;;;;5054034;28;20052;-79
2023/04/20 08:07:13;;;;;;;6.97;3.17;;;;;;;;;;5054311;28;20045;-78
2023/04/20 08:09:41;;;;;;;8.40;3.58;;;;;;;;;;5052355;28;20122;-77
2023/04/20 08:12:07;;;;;;;9.02;3.45;;;;;;;;;;5049638;28;20063;-78
2023/04/20 08:14:34;;;;;;;7.63;3.40;;;;;;;;;;5044294;28;20371;-76
2023/04/20 08:17:00;;;;;;;7.97;3.40;;;;;;;;;;5054046;28;20049;-76
2023/04/20 08:19:26;;;;;;;6.15;3.42;;;;;;;;;;5053926;28;20052;-76
2023/04/20 08:21:53;;;;;;;6.72;3.20;;;;;;;;;;5047597;28;20065;-77
2023/04/20 08:24:19;;;;;;;5.85;3.55;;;;;;;;;;5052904;28;20075;-77
2023/04/20 08:26:45;;;;;;;7.50;4.15;;;;;;;;;;5053979;28;20045;-78
2023/04/20 08:29:11;;;;;;;8.98;3.72;;;;;;;;;;5050023;28;20048;-78
2023/04/20 08:31:37;;;;;;;6.80;3.53;;;;;;;;;;5053387;28;20063;-78
2023/04/20 08:34:03;;;;;;;5.43;3.10;;;;;;;;;;5051766;28;20136;-79
2023/04/20 08:36:30;;;;;;;5.63;3.25;;;;;;;;;;5034013;28;20069;-79
2023/04/20 08:39:08;;;;;;;6.47;3.25;;;;;;;;;;4999911;28;20107;-79
2023/04/20 08:41:34;;;;;;;6.03;3.85;;;;;;;;;;5015529;28;20038;-79
2023/04/20 08:44:00;;;;;;;7.60;4.00;;;;;;;;;;5032691;28;20049;-79
2023/04/20 08:46:26;;;;;;;7.03;3.63;;;;;;;;;;5034077;28;20049;-79
2023/04/20 08:48:56;;;;;;;9.93;3.97;;;;;;;;;;5033684;28;20498;-79
2023/04/20 08:51:23;;;;;;;9.70;3.92;;;;;;;;;;5031631;28;20433;-79
2023/04/20 08:53:49;;;;;;;9.43;4.07;;;;;;;;;;5025070;28;20475;-79
2023/04/20 08:56:15;;;;;;;7.70;3.60;;;;;;;;;;4999871;28;20064;-79
2023/04/20 08:58:41;;;;;;;8.88;3.88;;;;;;;;;;5037892;28;20041;-81
2023/04/20 09:01:08;;;;;;;6.90;3.88;;;;;;;;;;5018744;28;20374;-79
2023/04/20 09:03:34;;;;;;;6.82;4.32;;;;;;;;;;5033212;28;20056;-79
2023/04/20 09:06:00;;;;;;;9.75;4.20;;;;;;;;;;5029319;28;20441;-79
2023/04/20 09:08:37;;;;;;;7.28;4.57;;;;;;;;;;5032671;28;20493;-80
2023/04/20 09:11:03;;;;;;;6.80;4.07;;;;;;;;;;5018675;28;20051;-80
2023/04/20 09:13:30;;;;;;;8.63;3.80;;;;;;;;;;5021345;28;20042;-80
2023/04/20 09:15:56;;;;;;;9.45;4.10;;;;;;;;;;5020128;28;20055;-79
2023/04/20 09:18:23;;;;;;;8.65;3.97;;;;;;;;;;5035003;28;20071;-80
2023/04/20 09:20:50;;;;;;;9.45;4.05;;;;;;;;;;5022862;28;20046;-78
2023/04/20 09:23:17;;;;;;;7.40;4.25;;;;;;;;;;5032427;28;20095;-77
2023/04/20 09:25:45;;;;;;;6.55;4.38;;;;;;;;;;5020170;28;20045;-79
2023/04/20 09:28:12;;;;;;;6.85;4.05;;;;;;;;;;5005729;28;20076;-78
2023/04/20 09:30:42;;;;;;;6.50;4.03;;;;;;;;;;5052286;28;20041;-78
2023/04/20 09:33:11;;;;;;;7.15;4.10;;;;;;;;;;5051188;28;20041;-79
2023/04/20 09:35:41;;;;;;;6.15;4.22;;;;;;;;;;5034890;28;20372;-78
2023/04/20 09:38:07;;;;;;;9.15;4.40;;;;;;;;;;5051288;28;20051;-78
2023/04/20 09:40:34;;;;;;;7.30;4.13;;;;;;;;;;5033813;28;21317;-79
2023/04/20 09:43:06;;;;;;;10.98;4.75;;;;;;;;;;5052134;28;20080;-78
2023/04/20 09:45:33;;;;;;;8.50;4.47;;;;;;;;;;5034542;28;20068;-78
2023/04/20 09:47:59;;;;;;;8.73;4.53;;;;;;;;;;5034250;28;20505;-78
2023/04/20 09:50:25;;;;;;;7.50;4.28;;;;;;;;;;5017926;28;20432;-79
2023/04/20 09:52:51;;;;;;;8.40;4.47;;;;;;;;;;5059718;28;20074;-79
2023/04/20 09:55:18;;;;;;;7.15;4.03;;;;;;;;;;5030440;28;20037;-77
2023/04/20 09:57:44;;;;;;;6.90;4.13;;;;;;;;;;5018364;28;20454;-77
2023/04/20 10:00:11;;;;;;;7.22;4.20;;;;;;;;;;5017103;28;20040;-78
2023/04/20 10:02:39;;;;;;;6.47;4.32;;;;;;;;;;5052009;28;20153;-80
2023/04/20 10:05:06;;;;;;;6.80;4.10;;;;;;;;;;5051687;28;20053;-79
2023/04/20 10:07:33;;;;;;;8.55;4.68;;;;;;;;;;5052182;28;20068;-79
2023/04/20 10:10:06;;;;;;;6.78;4.28;;;;;;;;;;5051873;28;20053;-79
2023/04/20 10:12:35;;;;;;;9.13;4.40;;;;;;;;;;5017360;28;20045;-79
2023/04/20 10:15:01;;;;;;;9.68;4.63;;;;;;;;;;5035260;28;20060;-78
2023/04/20 10:17:31;;;;;;;8.60;4.50;;;;;;;;;;5036564;28;20437;-78
2023/04/20 10:19:57;;;;;;;7.90;4.43;;;;;;;;;;5033027;28;20084;-78
2023/04/20 10:22:32;;;;;;;11.05;4.22;;;;;;;;;;5032906;28;20041;-79
2023/04/20 10:25:02;;;;;;;8.02;4.57;;;;;;;;;;5051886;28;20477;-78
2023/04/20 10:27:30;;;;;;;7.25;4.90;;;;;;;;;;5034158;28;20045;-78
2023/04/20 10:29:57;;;;;;;8.32;4.45;;;;;;;;;;5017229;28;20048;-79
2023/04/20 10:32:24;;;;;;;7.75;4.60;;;;;;;;;;5052065;28;20049;-78
2023/04/20 10:35:00;;;;;;;6.43;4.45;;;;;;;;;;5051974;28;20072;-78
2023/04/20 10:37:26;;;;;;;7.80;4.57;;;;;;;;;;5035066;28;20069;-79
2023/04/20 10:39:52;;;;;;;9.27;4.40;;;;;;;;;;5056010;28;20049;-79
2023/04/20 10:42:20;;;;;;;6.95;4.68;;;;;;;;;;5038052;28;20497;-79
2023/04/20 10:44:48;;;;;;;7.78;4.70;;;;;;;;;;5055822;28;20045;-79
2023/04/20 10:47:15;;;;;;;7.47;4.53;;;;;;;;;;5038006;28;20102;-79
2023/04/20 10:49:41;;;;;;;8.90;4.80;;;;;;;;;;5055619;28;20099;-79
2023/04/20 10:52:07;;;;;;;8.50;4.68;;;;;;;;;;5055581;28;20045;-79
2023/04/20 10:54:38;;;;;;;8.57;4.85;;;;;;;;;;5034332;28;20046;-80
2023/04/20 10:57:05;;;;;;;8.80;4.95;;;;;;;;;;5034365;28;20072;-79
2023/04/20 10:59:33;;;;;;;8.57;5.00;;;;;;;;;;5017817;28;20064;-79
2023/04/20 11:02:00;;;;;;;9.05;5.28;;;;;;;;;;5017763;28;20084;-79
2023/04/20 11:04:31;;;;;;;9.75;4.97;;;;;;;;;;5035025;28;20473;-79
2023/04/20 11:07:04;;;;;;;7.40;4.97;;;;;;;;;;5018019;28;20066;-79
2023/04/20 11:09:32;;;;;;;9.75;4.93;;;;;;;;;;5017745;28;20049;-78
2023/04/20 11:11:59;;;;;;;8.20;5.40;;;;;;;;;;5035223;28;20088;-78
2023/04/20 11:14:25;;;;;;;8.27;5.22;;;;;;;;;;5035149;28;20041;-78
2023/04/20 11:16:52;;;;;;;9.55;5.50;;;;;;;;;;5017814;28;20358;-79
2023/04/20 11:19:29;;;;;;;8.75;5.53;;;;;;;;;;5035485;28;20086;-79
2023/04/20 11:21:55;;;;;;;8.65;5.03;;;;;;;;;;5035014;28;20045;-79
2023/04/20 11:24:23;;;;;;;12.60;5.80;;;;;;;;;;5035137;28;20053;-78
2023/04/20 11:26:49;;;;;;;9.65;5.50;;;;;;;;;;5017320;28;20045;-78
2023/04/20 11:29:32;;;;;;;8.32;5.72;;;;;;;;;;5034812;28;20364;-79
2023/04/20 11:31:59;;;;;;;10.02;6.15;;;;;;;;;;5034835;28;20057;-79
2023/04/20 11:34:25;;;;;;;8.80;5.55;;;;;;;;;;5034729;28;20045;-79
2023/04/20 11:36:53;;;;;;;10.02;5.82;;;;;;;;;;5017420;28;20135;-78
2023/04/20 11:39:27;;;;;;;9.45;6.00;;;;;;;;;;5016755;28;20081;-78
2023/04/20 11:41:53;;;;;;;10.85;6.22;;;;;;;;;;5034716;28;20390;-78
2023/04/20 11:44:20;;;;;;;9.23;5.80;;;;;;;;;;5034295;28;20084;-79
2023/04/20 11:46:48;;;;;;;9.82;5.88;;;;;;;;;;5017325;28;20095;-79
2023/04/20 11:49:15;;;;;;;9.32;5.82;;;;;;;;;;5016069;28;20064;-78
2023/04/20 11:51:42;;;;;;;10.05;6.00;;;;;;;;;;5034777;28;20046;-79
2023/04/20 11:54:08;;;;;;;10.23;5.80;;;;;;;;;;5016148;28;20049;-78
2023/04/20 11:56:34;;;;;;;10.85;6.28;;;;;;;;;;5016715;28;20056;-76
2023/04/20 11:59:00;;;;;;;10.77;6.07;;;;;;;;;;5034362;28;20397;-78
2023/04/20 12:01:26;;;;;;;10.63;6.80;;;;;;;;;;5033863;28;20107;-77
2023/04/20 12:03:54;;;;;;;14.25;6.15;;;;;;;;;;5033442;28;20065;-77
2023/04/20 12:06:20;;;;;;;8.90;5.90;;;;;;;;;;5034136;28;20504;-77
2023/04/20 12:08:49;;;;;;;11.50;6.13;;;;;;;;;;5034370;28;20038;-79
2023/04/20 12:11:18;;;;;;;10.90;5.80;;;;;;;;;;5016294;28;20478;-80
2023/04/20 12:13:44;;;;;;;9.82;5.95;;;;;;;;;;5034344;28;20049;-79
2023/04/20 12:16:10;;;;;;;8.35;5.95;;;;;;;;;;5034094;28;20379;-80
2023/04/20 12:18:36;;;;;;;10.85;6.18;;;;;;;;;;5016119;28;20041;-80
2023/04/20 12:21:02;;;;;;;9.95;5.57;;;;;;;;;;5033878;28;20049;-80
2023/04/20 12:23:28;;;;;;;9.35;5.78;;;;;;;;;;5015977;28;20132;-79
2023/04/20 12:25:54;;;;;;;11.35;5.88;;;;;;;;;;5015942;28;20041;-80
2023/04/20 12:28:20;;;;;;;9.10;6.03;;;;;;;;;;5033801;28;20049;-80
2023/04/20 12:30:46;;;;;;;10.40;6.20;;;;;;;;;;5015396;28;20068;-81
2023/04/20 12:33:12;;;;;;;13.05;6.78;;;;;;;;;;5032123;28;20084;-79
2023/04/20 12:35:38;;;;;;;12.80;6.95;;;;;;;;;;5033440;28;20041;-80
2023/04/20 12:38:04;;;;;;;12.52;6.88;;;;;;;;;;5034068;28;20052;-79
2023/04/20 12:40:30;;;;;;;9.98;6.28;;;;;;;;;;5015357;28;20038;-80
2023/04/20 12:42:56;;;;;;;10.10;6.38;;;;;;;;;;5015891;28;20051;-79
2023/04/20 12:45:23;;;;;;;10.38;6.47;;;;;;;;;;5015364;28;20185;-80
2023/04/20 12:47:49;;;;;;;9.55;6.55;;;;;;;;;;5016049;28;20144;-78
2023/04/20 12:50:15;;;;;;;8.35;5.90;;;;;;;;;;5032149;28;20042;-79
2023/04/20 12:52:41;;;;;;;9.45;5.90;;;;;;;;;;5033522;28;20045;-80
2023/04/20 12:55:07;;;;;;;7.43;5.60;;;;;;;;;;5051168;28;20037;-79
2023/04/20 12:57:33;;;;;;;8.27;6.00;;;;;;;;;;5035667;28;20057;-79
2023/04/20 13:00:02;;;;;;;7.65;5.53;;;;;;;;;;5052797;28;20077;-79
2023/04/20 13:02:28;;;;;;;10.15;5.85;;;;;;;;;;5051709;28;20504;-79
2023/04/20 13:04:54;;;;;;;7.80;5.47;;;;;;;;;;5053133;28;20045;-79
2023/04/20 13:07:20;;;;;;;8.65;6.15;;;;;;;;;;5052905;28;20063;-79
2023/04/20 13:09:46;;;;;;;7.95;5.78;;;;;;;;;;5053051;28;20120;-78
2023/04/20 13:12:12;;;;;;;9.57;5.65;;;;;;;;;;5035006;28;20052;-77
2023/04/20 13:14:38;;;;;;;9.77;5.70;;;;;;;;;;5050875;28;20049;-78
2023/04/20 13:17:05;;;;;;;10.23;5.35;;;;;;;;;;5053280;28;20416;-76
2023/04/20 13:19:32;;;;;;;8.55;5.55;;;;;;;;;;5034542;28;20057;-79
2023/04/20 13:21:58;;;;;;;9.20;5.80;;;;;;;;;;5053057;28;20049;-80
2023/04/20 13:24:24;;;;;;;9.88;5.50;;;;;;;;;;5037314;28;20490;-79
2023/04/20 13:26:55;;;;;;;9.18;5.75;;;;;;;;;;5039460;28;20179;-80
2023/04/20 13:29:21;;;;;;;8.95;6.22;;;;;;;;;;5053823;28;20072;-78
2023/04/20 13:31:47;;;;;;;7.85;5.72;;;;;;;;;;5052971;28;20131;-79
2023/04/20 13:34:14;;;;;;;7.85;5.78;;;;;;;;;;5052664;28;20421;-77
2023/04/20 13:36:40;;;;;;;8.63;5.63;;;;;;;;;;5053024;28;20041;-78
2023/04/20 13:39:07;;;;;;;9.23;6.07;;;;;;;;;;5052545;28;20049;-80
2023/04/20 13:41:33;;;;;;;9.82;6.43;;;;;;;;;;5034768;28;20132;-80
2023/04/20 13:44:00;;;;;;;7.85;6.32;;;;;;;;;;5034545;28;20127;-73
2023/04/20 13:46:26;;;;;;;8.27;6.07;;;;;;;;;;5035175;28;20076;-75
2023/04/20 13:48:52;;;;;;;10.75;6.13;;;;;;;;;;5018520;28;20076;-74
2023/04/20 13:51:19;;;;;;;8.10;5.90;;;;;;;;;;5017820;28;20040;-72
2023/04/20 13:53:47;;;;;;;8.43;5.80;;;;;;;;;;5026575;28;20051;-72
2023/04/20 13:56:13;;;;;;;10.30;6.15;;;;;;;;;;5032094;28;20460;-72
2023/04/20 13:58:39;;;;;;;8.40;6.30;;;;;;;;;;5032271;28;20049;-78
2023/04/20 14:01:09;;;;;;;10.65;6.60;;;;;;;;;;5032432;28;20045;-79
2023/04/20 14:03:35;;;;;;;8.82;6.35;;;;;;;;;;5014822;28;20049;-78
2023/04/20 14:06:01;;;;;;;9.45;6.35;;;;;;;;;;5032168;28;20115;-79
2023/04/20 14:08:27;;;;;;;9.18;6.45;;;;;;;;;;4998097;28;20053;-80
2023/04/20 14:10:53;;;;;;;9.05;5.72;;;;;;;;;;5031383;28;20406;-77
2023/04/20 14:13:19;;;;;;;9.20;6.25;;;;;;;;;;5032303;28;20053;-78
2023/04/20 14:15:45;;;;;;;8.07;6.07;;;;;;;;;;5032105;28;20096;-78
2023/04/20 14:18:11;;;;;;;8.93;5.63;;;;;;;;;;5014570;28;20046;-77
2023/04/20 14:20:37;;;;;;;7.22;5.65;;;;;;;;;;5031918;28;20509;-77
2023/04/20 14:23:03;;;;;;;7.82;5.55;;;;;;;;;;5014333;28;20046;-78
2023/04/20 14:25:30;;;;;;;8.82;6.05;;;;;;;;;;5032060;28;20045;-79
2023/04/20 14:27:56;;;;;;;8.20;5.63;;;;;;;;;;5032432;28;20362;-78
2023/04/20 14:30:22;;;;;;;8.73;5.82;;;;;;;;;;5014354;28;20367;-78
2023/04/20 14:32:55;;;;;;;7.97;5.50;;;;;;;;;;5030232;28;20057;-78
2023/04/20 14:35:22;;;;;;;8.88;6.20;;;;;;;;;;5031967;28;20061;-79
2023/04/20 14:37:48;;;;;;;8.57;5.70;;;;;;;;;;5032377;28;20042;-78